• Join FlightAware (Why Join?)
  • Login
  • US Flag 
10:57PM EDT


 

Airport Tracker/Info


-or-


 

Live Flight TrackerFlight Track Log ✈ SWA279 ✈ 18-Apr-2013 ✈ KMHT - KDEN

Flight Track Log - Related Links

Times and Time Zones

All times are in EDT time to prevent confusion due to time zone crossing. See the SWA279 flight status page for this flight to view local times or setup timezone preferences in your user account.

Time Position Orientation Groundspeed Altitude Reporting Facility
EDT Latitude Longitude Course Direction KTS MPH feet Rate Location/Type
07:00AM 42.9500 -71.4167 14° North 158 182 1,200  Level KA90
07:01AM 43.0000 -71.4000 14° North 219 252 3,100 2,760 Climbing KA90
07:02AM 43.0506 -71.4597 319° Northwest 280 322 6,600 3,480 Climbing Boston Center
07:03AM 43.0700 -71.5506 286° West 249 287 10,600 2,580 Climbing Boston Center
07:04AM 43.0750 -71.6614 274° West 280 322 11,900 2,340 Climbing Boston Center
07:05AM 43.0800 -71.7919 273° West 335 386 15,400 3,120 Climbing Boston Center
07:06AM 43.0850 -71.9200 273° West 348 400 18,100 2,160 Climbing Boston Center
07:07AM 43.0897 -72.0592 273° West 353 406 19,800 1,920 Climbing Boston Center
07:08AM 43.0961 -72.2014 274° West 364 419 22,100 2,160 Climbing Boston Center
07:09AM 43.1089 -72.3461 277° West 378 435 24,100 1,800 Climbing Boston Center
07:10AM 43.1111 -72.4997 271° West 390 449 25,800 1,620 Climbing Boston Center
07:11AM 43.1131 -72.6619 271° West 409 471 27,400 1,740 Climbing Boston Center
07:12AM 43.1167 -72.8242 272° West 424 488 29,300 1,980 Climbing Boston Center
07:13AM 43.1203 -72.9778 272° West 424 488 31,400 2,040 Climbing Boston Center
07:14AM 43.1256 -73.1314 273° West 413 475 33,400 1,680 Climbing Boston Center
07:15AM 43.1269 -73.2536 271° West 408 470 34,800 1,260 Climbing Boston Center
07:16AM 43.1281 -73.3817 271° West 390 449 36,000 540 Climbing Boston Center
07:17AM 43.1325 -73.5694 272° West 384 442 36,000  Level Boston Center
07:18AM 43.1353 -73.7006 272° West 384 442 36,000  Level Boston Center
07:19AM 43.1378 -73.8486 271° West 384 442 36,000  Level Boston Center
07:20AM 43.1400 -73.9936 271° West 384 442 36,000  Level Boston Center
07:21AM 43.1442 -74.1389 272° West 384 442 36,000  Level Boston Center
07:22AM 43.1464 -74.2783 271° West 384 442 36,000  Level Boston Center
07:23AM 43.1481 -74.4264 271° West 384 442 36,000  Level Boston Center
07:24AM 43.1494 -74.5803 271° West 384 442 36,000  Level Boston Center
07:25AM 43.1403 -74.7278 265° West 384 442 36,000  Level Boston Center
07:26AM 43.1122 -74.8692 255° West 389 448 36,000  Level Boston Center
07:27AM 43.0819 -75.0128 254° West 389 448 36,000  Level Boston Center
07:28AM 43.0536 -75.1567 255° West 395 455 36,000  Level Boston Center
07:29AM 43.0253 -75.2975 255° West 395 455 36,000  Level Boston Center
07:30AM 42.9967 -75.4408 255° West 395 455 36,000  Level Boston Center
07:31AM 42.9719 -75.5844 257° West 395 455 36,000  Level Boston Center
07:32AM 42.9406 -75.7275 253° West 395 455 36,000  Level Boston Center
07:33AM 42.9114 -75.8733 255° West 395 455 36,000  Level Boston Center
07:34AM 42.8819 -76.0136 254° West 395 455 36,000  Level Boston Center
07:36AM 42.8311 -76.2483 254° West 395 455 36,000  Level Cleveland Center
07:37AM 42.8031 -76.3889 255° West 395 455 36,000  Level Cleveland Center
07:38AM 42.7728 -76.5353 254° West 390 449 36,000  Level Cleveland Center
07:39AM 42.7403 -76.6789 253° West 395 455 36,000  Level Cleveland Center
07:40AM 42.7094 -76.8219 254° West 395 455 36,000  Level Cleveland Center
07:41AM 42.6808 -76.9650 255° West 395 455 36,000  Level Cleveland Center
07:42AM 42.6475 -77.1081 252° West 401 461 36,000  Level Cleveland Center
07:43AM 42.6186 -77.2564 255° West 401 461 36,000  Level Cleveland Center
07:44AM 42.6164 -77.4033 269° West 401 461 36,000  Level Cleveland Center
07:45AM 42.6186 -77.5556 271° West 401 461 36,000  Level Cleveland Center
07:46AM 42.6181 -77.7053 270° West 406 467 36,000  Level Cleveland Center
07:47AM 42.6153 -77.8408 268° West 401 461 36,000 180 Level Cleveland Center
07:48AM 42.6144 -77.9847 270° West 401 461 36,400 900 Climbing Cleveland Center
07:49AM 42.6133 -78.1258 269° West 396 456 37,900 780 Climbing Cleveland Center
07:50AM 42.6122 -78.2725 269° West 391 450 38,000  Climbing Cleveland Center
07:51AM 42.6108 -78.4136 269° West 386 444 38,000  Level Cleveland Center
07:52AM 42.6072 -78.5606 268° West 386 444 38,000  Level Cleveland Center
07:53AM 42.6075 -78.7072 270° West 386 444 38,000  Level Cleveland Center
07:54AM 42.6056 -78.8511 269° West 386 444 38,000  Level Cleveland Center
07:55AM 42.6036 -78.9950 269° West 386 444 38,000  Level Cleveland Center
07:56AM 42.6014 -79.1419 269° West 386 444 38,000  Level Cleveland Center
07:57AM 42.5989 -79.2858 269° West 386 444 38,000  Level Cleveland Center
07:58AM 42.5961 -79.4353 269° West 386 444 38,000  Level Cleveland Center
07:59AM 42.5933 -79.5819 269° West 386 444 38,000  Level Cleveland Center
08:00AM 42.5906 -79.7314 269° West 391 450 38,000  Level Cleveland Center
08:01AM 42.5872 -79.8781 268° West 391 450 38,000  Level Cleveland Center
08:02AM 42.5797 -80.0278 266° West 391 450 38,000  Level Cleveland Center
08:03AM 42.5742 -80.1744 267° West 396 456 38,000  Level Cleveland Center
08:04AM 42.5703 -80.3322 268° West 396 456 38,000  Level Cleveland Center
08:05AM 42.5664 -80.4844 268° West 401 461 38,000  Level Cleveland Center
08:06AM 42.5622 -80.6311 268° West 401 461 38,000  Level Cleveland Center
08:07AM 42.5581 -80.7778 268° West 406 467 38,000  Level Cleveland Center
08:08AM 42.5533 -80.9269 268° West 406 467 38,000  Level Cleveland Center
08:09AM 42.5489 -81.0764 268° West 401 461 38,000  Level Cleveland Center
08:10AM 42.5417 -81.2256 266° West 401 461 38,000  Level Cleveland Center
08:11AM 42.5367 -81.3750 267° West 401 461 38,000  Level Cleveland Center
08:12AM 42.5314 -81.5297 267° West 407 468 38,000  Level Cleveland Center
08:13AM 42.5278 -81.6819 268° West 413 475 38,000  Level Cleveland Center
08:14AM 42.5181 -81.8283 265° West 408 470 38,000  Level Cleveland Center
08:15AM 42.5122 -81.9775 267° West 408 470 38,000  Level Cleveland Center
08:16AM 42.5061 -82.1294 267° West 408 470 38,000  Level Cleveland Center
08:17AM 42.4997 -82.2814 267° West 403 464 38,000  Level Cleveland Center
08:18AM 42.4933 -82.4333 267° West 403 464 38,000  Level Cleveland Center
08:19AM 42.4867 -82.5794 267° West 403 464 38,000  Level Cleveland Center
08:20AM 42.4797 -82.7283 266° West 403 464 38,000  Level Cleveland Center
08:21AM 42.4706 -82.8803 265° West 403 464 38,000  Level Cleveland Center
08:22AM 42.4633 -83.0292 266° West 403 464 38,000  Level Cleveland Center
08:23AM 42.4558 -83.1781 266° West 403 464 38,000  Level Cleveland Center
08:24AM 42.4503 -83.3269 267° West 403 464 38,000  Level Cleveland Center
08:25AM 42.4450 -83.4644 267° West 403 464 38,000  Level Cleveland Center
08:26AM 42.4350 -83.6133 265° West 403 464 38,000  Level Cleveland Center
08:27AM 42.4244 -83.7647 265° West 403 464 38,000  Level Cleveland Center
08:29AM 42.4031 -84.1308 266° West 399 459 38,000  Level Chicago Center
08:30AM 42.3933 -84.2797 265° West 399 459 38,000  Level Chicago Center
08:31AM 42.3839 -84.4303 265° West 402 463 38,000  Level Chicago Center
08:32AM 42.3744 -84.5778 265° West 395 455 38,000  Level Chicago Center
08:33AM 42.3656 -84.7233 265° West 391 450 38,000  Level Chicago Center
08:34AM 42.3536 -84.8975 265° West 388 447 38,000  Level Chicago Center
08:35AM 42.3439 -85.0419 265° West 389 448 38,000  Level Chicago Center
08:36AM 42.3333 -85.1867 264° West 387 445 38,000  Level Chicago Center
08:37AM 42.3233 -85.3294 265° West 384 442 38,000  Level Chicago Center
08:38AM 42.3128 -85.4747 264° West 387 445 38,000  Level Chicago Center
08:39AM 42.3025 -85.6164 264° West 381 438 38,000  Level Chicago Center
08:40AM 42.3033 -85.7586 271° West 385 443 38,000  Level Chicago Center
08:41AM 42.3189 -85.9006 278° West 382 440 38,000  Level Chicago Center
08:42AM 42.3342 -86.0436 278° West 384 442 38,000  Level Chicago Center
08:43AM 42.3511 -86.1842 279° West 380 437 38,000  Level Chicago Center
08:44AM 42.3675 -86.3242 279° West 377 434 38,000  Level Chicago Center
08:45AM 42.3853 -86.4639 280° West 376 433 38,000  Level Chicago Center
08:46AM 42.4064 -86.6033 282° West 377 434 38,000  Level Chicago Center
08:47AM 42.4331 -86.7714 282° West 390 449 38,000  Level Chicago Center
08:48AM 42.4558 -86.9106 283° West 385 443 38,000  Level Chicago Center
08:49AM 42.4794 -87.0508 283° West 385 443 38,000  Level Chicago Center
08:50AM 42.5042 -87.1883 284° West 380 437 38,000  Level Chicago Center
08:51AM 42.5297 -87.3303 284° West 388 447 38,000  Level Chicago Center
08:52AM 42.5569 -87.4722 285° West 390 449 38,000  Level Chicago Center
08:53AM 42.5617 -87.6144 273° West 382 440 38,000  Level Chicago Center
08:54AM 42.5428 -87.7519 259° West 369 425 38,000  Level Chicago Center
08:55AM 42.5214 -87.9169 260° West 376 433 38,000  Level Chicago Center
08:56AM 42.5019 -88.0608 260° West 386 444 38,000  Level Chicago Center
08:58AM 42.4839 -88.2053 260° West 387 445 38,000  Level Chicago Center
08:59AM 42.4639 -88.3478 259° West 384 442 38,000  Level Chicago Center
09:00AM 42.4450 -88.4883 260° West 380 437 38,000  Level Chicago Center
09:01AM 42.4250 -88.6308 259° West 382 440 38,000  Level Chicago Center
09:02AM 42.4056 -88.7717 259° West 381 438 38,000  Level Chicago Center
09:03AM 42.3864 -88.9103 259° West 376 433 38,000  Level Chicago Center
09:04AM 42.3664 -89.0503 259° West 377 434 38,000  Level Chicago Center
09:05AM 42.3458 -89.1911 259° West 381 438 38,000  Level Chicago Center
09:06AM 42.3247 -89.3336 259° West 385 443 38,000  Level Chicago Center
09:07AM 42.3047 -89.4772 259° West 388 447 38,000  Level Chicago Center
09:08AM 42.2847 -89.6206 259° West 389 448 38,000  Level Chicago Center
09:09AM 42.2628 -89.7633 258° West 388 447 38,000  Level Chicago Center
09:10AM 42.2397 -89.9211 259° West 384 442 38,000  Level Chicago Center
09:11AM 42.2181 -90.0617 258° West 385 443 38,000  Level Chicago Center
09:12AM 42.1958 -90.2022 258° West 386 444 38,000  Level Chicago Center
09:13AM 42.1750 -90.3431 259° West 386 444 38,000  Level Chicago Center
09:14AM 42.1528 -90.4836 258° West 387 445 38,000  Level Chicago Center
09:15AM 42.1311 -90.6253 258° West 388 447 38,000  Level Chicago Center
09:16AM 42.1089 -90.7667 258° West 387 445 38,000  Level Chicago Center
09:17AM 42.0853 -90.9092 257° West 391 450 38,000  Level Chicago Center
09:18AM 42.0622 -91.0519 258° West 393 452 38,000  Level Chicago Center
09:19AM 42.0389 -91.1953 258° West 393 452 38,000  Level Chicago Center
09:20AM 42.0106 -91.3639 257° West 388 447 38,000  Level Chicago Center
09:21AM 41.9875 -91.5069 258° West 391 450 38,000  Level Chicago Center
09:22AM 41.9633 -91.6508 257° West 393 452 38,000  Level Chicago Center
09:23AM 41.9392 -91.7931 257° West 393 452 38,000  Level Chicago Center
09:24AM 41.9158 -91.9325 257° West 386 444 38,000  Level Chicago Center
09:25AM 41.8925 -92.0706 257° West 381 438 38,000  Level Chicago Center
09:26AM 41.8692 -92.2053 257° West 373 429 38,000  Level Chicago Center
09:27AM 41.8458 -92.3419 257° West 378 435 38,000  Level Chicago Center
09:28AM 41.8217 -92.4800 257° West 381 438 38,000  Level Chicago Center
09:29AM 41.7972 -92.6200 257° West 387 445 38,000  Level Chicago Center
09:30AM 41.7769 -92.7333 257° West 388 447 38,000  Level Minneapolis Center
09:31AM 41.7519 -92.8750 257° West 386 444 38,000  Level Minneapolis Center
09:32AM 41.7269 -93.0147 257° West 389 448 38,000  Level Minneapolis Center
09:33AM 41.7014 -93.1533 256° West 388 447 38,000  Level Minneapolis Center
09:34AM 41.6758 -93.2897 256° West 385 443 38,000  Level Minneapolis Center
09:35AM 41.6458 -93.4531 256° West 382 440 38,000  Level Minneapolis Center
09:36AM 41.6206 -93.5900 256° West 382 440 38,000  Level Minneapolis Center
09:37AM 41.5947 -93.7242 256° West 381 438 38,000  Level Minneapolis Center
09:38AM 41.5717 -93.8542 257° West 375 432 38,000  Level Minneapolis Center
09:39AM 41.5469 -93.9903 256° West 378 435 38,000  Level Minneapolis Center
09:40AM 41.5206 -94.1267 256° West 382 440 38,000  Level Minneapolis Center
09:41AM 41.5031 -94.2767 261° West 394 453 38,000  Level Minneapolis Center
09:42AM 41.4925 -94.4208 264° West 393 452 38,000  Level Minneapolis Center
09:43AM 41.4772 -94.5933 263° West 392 451 38,000  Level Minneapolis Center
09:44AM 41.4653 -94.7367 264° West 390 449 38,000  Level Minneapolis Center
09:45AM 41.4517 -94.8806 263° West 392 451 38,000  Level Minneapolis Center
09:46AM 41.4400 -95.0242 264° West 389 448 38,000  Level Minneapolis Center
09:47AM 41.4289 -95.1406 263° West 392 451 38,000  Level Minneapolis Center
09:48AM 41.4128 -95.3183 263° West 402 463 38,000  Level Minneapolis Center
09:49AM 41.3981 -95.4681 263° West 407 468 38,000  Level Minneapolis Center
09:50AM 41.3833 -95.6147 262° West 402 463 38,000  Level Minneapolis Center
09:51AM 41.3694 -95.7700 263° West 402 463 38,000  Level Minneapolis Center
09:52AM 41.3550 -95.9183 263° West 404 465 38,000  Level Minneapolis Center
09:53AM 41.3406 -96.0672 263° West 406 467 38,000  Level Minneapolis Center
09:54AM 41.3217 -96.2478 262° West 408 470 38,000  Level Minneapolis Center
09:55AM 41.3097 -96.3703 263° West 405 466 38,000  Level Minneapolis Center
09:56AM 41.2919 -96.5486 263° West 406 467 38,000  Level Minneapolis Center
09:57AM 41.2756 -96.6961 262° West 407 468 38,000  Level Minneapolis Center
09:58AM 41.2594 -96.8433 262° West 405 466 38,000  Level Minneapolis Center
09:59AM 41.2439 -96.9919 262° West 407 468 38,000  Level Minneapolis Center
10:00AM 41.2272 -97.1394 262° West 406 467 38,000  Level Minneapolis Center
10:01AM 41.2106 -97.2878 262° West 406 467 38,000  Level Minneapolis Center
10:03AM 41.1942 -97.4344 262° West 407 468 38,000  Level Minneapolis Center
10:04AM 41.1742 -97.6153 262° West 411 473 38,000  Level Minneapolis Center
10:05AM 41.1569 -97.7631 261° West 408 470 38,000  Level Minneapolis Center
10:06AM 41.1406 -97.9103 262° West 405 466 38,000  Level Minneapolis Center
10:07AM 41.1233 -98.0592 261° West 406 467 38,000  Level Minneapolis Center
10:08AM 41.1053 -98.2094 261° West 409 471 38,000  Level Minneapolis Center
10:09AM 41.0875 -98.3600 261° West 411 473 38,000  Level Minneapolis Center
10:10AM 41.0700 -98.5075 261° West 412 474 38,000  Level Minneapolis Center
10:11AM 41.0519 -98.6564 261° West 411 473 38,000  Level Minneapolis Center
10:12AM 41.0342 -98.8036 261° West 408 470 38,000  Level Minneapolis Center
10:13AM 41.0111 -98.9808 260° West 408 470 38,000  Level Minneapolis Center
10:14AM 40.9928 -99.1272 261° West 406 467 38,000  Level Minneapolis Center
10:14AM 40.9831 -99.2044 261° West 408 470 38,000  Level Denver Center
10:15AM 40.9661 -99.3253 260° West 413 475 38,000  Level Denver Center
10:16AM 40.9383 -99.5044 258° West 414 476 38,000  Level Denver Center
10:17AM 40.9164 -99.6558 259° West 417 480 38,000  Level Denver Center
10:18AM 40.8933 -99.8067 259° West 418 481 38,000  Level Denver Center
10:19AM 40.8686 -99.9667 259° West 418 481 38,000  Level Denver Center
10:20AM 40.8422 -100.1358 258° West 420 483 38,000  Level Denver Center
10:21AM 40.8194 -100.2794 258° West 418 481 38,000  Level Denver Center
10:23AM 40.7975 -100.4236 259° West 417 480 38,000  Level Denver Center
10:24AM 40.7717 -100.5903 258° West 413 475 38,000  Level Denver Center
10:25AM 40.7475 -100.7358 258° West 414 476 38,000  Level Denver Center
10:26AM 40.7233 -100.8833 258° West 421 484 38,000  Level Denver Center
10:27AM 40.7000 -101.0289 258° West 422 486 38,000  Level Denver Center
10:28AM 40.6767 -101.1725 258° West 420 483 38,000  Level Denver Center
10:29AM 40.6492 -101.3417 258° West 422 486 38,000  Level Denver Center
10:30AM 40.6217 -101.5097 258° West 421 484 38,000  Level Denver Center
10:31AM 40.5978 -101.6528 258° West 418 481 38,000  Level Denver Center
10:32AM 40.5736 -101.7953 257° West 417 480 38,000  Level Denver Center
10:33AM 40.5442 -101.9594 257° West 413 475 38,000  Level Denver Center
10:34AM 40.5200 -102.0994 257° West 412 474 38,000  Level Denver Center
10:35AM 40.4906 -102.2625 257° West 410 472 38,000  Level Denver Center
10:36AM 40.4669 -102.4028 258° West 410 472 38,000 -60 Level Denver Center
10:37AM 40.4414 -102.5422 257° West 411 473 37,900 -1,320 Descending Denver Center
10:38AM 40.4117 -102.7119 257° West 407 468 35,300 -2,820 Descending Denver Center
10:39AM 40.3833 -102.8608 256° West 416 479 32,200 -2,700 Descending Denver Center
10:40AM 40.3575 -103.0111 257° West 420 483 29,800 -2,340 Descending Denver Center
10:41AM 40.3306 -103.1533 256° West 401 461 27,500 -2,160 Descending Denver Center
10:42AM 40.3067 -103.2919 257° West 389 448 25,400 -2,100 Descending Denver Center
10:43AM 40.2819 -103.4233 256° West 370 426 23,300 -1,980 Descending Denver Center
10:44AM 40.2575 -103.5467 255° West 350 403 21,400 -1,800 Descending Denver Center
10:45AM 40.2358 -103.6661 257° West 335 386 19,600 -1,680 Descending Denver Center
10:46AM 40.2117 -103.7964 256° West 341 392 18,000 -1,260 Descending Denver Center
10:47AM 40.2039 -103.9069 265° West 309 356 17,100 -1,200 Descending Denver Center
10:48AM 40.2156 -104.0200 278° West 294 338 15,600 -1,440 Descending Denver Center
10:49AM 40.2250 -104.1208 277° West 283 326 14,200 -1,320 Descending Denver Center
10:50AM 40.2342 -104.2156 277° West 267 307 13,000 -1,140 Descending Denver Center
10:51AM 40.2433 -104.3131 277° West 254 292 11,900 -1,020 Descending Denver Center
10:52AM 40.2389 -104.4003 266° West 254 292 10,900 -960 Descending Denver Center
10:53AM 40.2064 -104.4867 244° Southwest 247 284 10,000 -780 Descending Denver Center
10:54AM 40.1742 -104.5647 242° Southwest 246 283 9,400 -900 Descending Denver Center
10:56AM 40.1000 -104.6167 208° Southwest 255 293 8,000 -960 Descending Denver TRACON
10:56AM 40.0469 -104.6475 204° Southwest 248 285 7,500 -540 Descending Denver Center
10:57AM 39.9933 -104.6783 204° Southwest 213 245 7,000 -660 Descending Denver Center
10:58AM 39.9411 -104.6861 187° South 173 199 6,200 -780 Descending Denver Center
10:59AM 39.8986 -104.6867 181° South 154 177 5,400 -780 Descending Denver Center
11:01AM 39.8617 -104.6732 North  Level Estimated
11:08AM 39.8617 -104.6732 North  Level Estimated
11:09AM 39.8617 -104.6732 North  Level Estimated
11:10AM 39.8617 -104.6732 North  Level Estimated